Date,TemperatureHighF,TemperatureAvgF,TemperatureLowF,DewpointHighF,DewpointAvgF,DewpointLowF,HumidityHigh,HumidityAvg,HumidityLow,PressureMaxIn,PressureMinIn,WindSpeedMaxMPH,WindSpeedAvgMPH,GustSpeedMaxMPH,PrecipitationSumIn
2013-3-1,23.5,22.4,20.0,19.0,17.8,14.0,86,83,76,30.28,30.13,13,6,18,0.00
2013-3-2,22.4,17.2,9.2,15.0,11.7,7.0,91,79,71,30.27,30.22,9,3,12,0.00
2013-3-3,27.0,14.9,3.7,15.0,4.9,-2.0,91,68,30,30.22,30.15,5,1,9,0.00
2013-3-4,32.8,21.4,4.6,24.0,16.0,1.0,89,80,65,30.20,30.10,8,2,12,0.01
2013-3-5,30.1,27.9,24.7,26.0,24.4,23.0,95,87,75,30.10,29.92,12,5,17,0.00
2013-3-6,32.8,28.5,24.8,27.0,24.6,22.0,91,85,79,30.34,30.09,11,3,13,0.02
2013-3-7,35.6,27.3,17.7,23.0,19.8,14.0,87,74,56,30.48,30.34,4,0,7,0.01
2013-3-8,39.6,27.9,12.4,28.0,22.0,10.0,94,79,61,30.52,30.34,5,0,7,0.00
2013-3-9,38.6,34.4,29.2,34.0,29.5,24.0,93,82,76,30.34,29.85,5,1,8,0.09
2013-3-10,41.6,38.5,35.6,41.0,37.6,34.0,98,96,91,29.85,29.64,13,2,16,0.76
2013-3-11,38.0,33.4,29.2,38.0,32.6,27.0,98,97,91,29.75,29.54,4,0,8,0.06
2013-3-12,32.2,28.2,25.3,26.0,23.3,19.0,93,82,64,30.01,29.76,6,1,12,0.04
2013-3-13,30.4,23.9,18.0,21.0,12.6,8.0,87,64,40,30.34,30.02,10,2,17,0.00
2013-3-14,35.2,27.4,15.5,27.0,18.2,10.0,93,70,42,30.34,30.10,3,1,6,0.00
2013-3-15,35.5,30.3,27.2,33.0,27.9,25.0,96,91,83,30.10,29.83,7,2,13,0.04
2013-3-16,30.2,26.3,22.2,26.0,21.2,17.0,93,81,67,30.17,29.83,12,4,14,0.01
2013-3-17,27.9,23.6,16.8,22.0,15.3,9.0,82,71,63,30.30,30.07,10,3,14,0.00
2013-3-18,32.6,27.7,17.2,31.0,24.6,11.0,94,88,77,30.06,29.60,7,2,12,0.07
2013-3-19,28.9,19.4,12.6,14.0,10.2,8.0,82,69,45,30.07,29.73,7,2,15,0.00
2013-3-20,20.7,14.6,8.7,8.0,3.6,-1.0,69,62,53,30.10,30.06,8,2,13,0.00
2013-3-21,28.3,16.1,7.0,14.0,7.1,1.0,79,68,54,30.11,30.06,6,1,12,0.00
2013-3-22,33.6,22.4,11.2,17.0,12.8,7.0,82,68,50,30.13,30.07,6,1,8,0.00
2013-3-23,37.9,27.5,16.7,24.0,18.8,13.0,92,71,46,30.19,30.09,5,1,10,0.00
2013-3-24,32.9,30.1,28.7,28.0,25.0,22.0,92,81,73,30.10,29.79,15,6,21,0.02
2013-3-25,32.1,29.2,24.7,26.0,23.7,20.0,88,80,69,30.12,29.81,17,6,22,0.00
2013-3-26,39.7,34.1,28.4,29.0,25.8,23.0,83,72,64,30.26,30.12,8,2,14,0.00
2013-3-27,42.1,34.6,26.1,26.0,22.4,19.0,80,63,42,30.33,30.26,9,1,12,0.00
2013-3-28,46.2,34.2,23.6,25.0,20.7,19.0,83,60,36,30.37,30.32,5,0,9,0.00
2013-3-29,50.0,36.7,25.3,26.0,21.6,19.0,80,57,32,30.35,30.26,4,0,7,0.00
2013-3-30,53.7,41.9,28.7,41.0,30.3,20.0,92,65,48,30.26,29.82,7,2,11,0.02
2013-3-31,49.8,40.2,31.0,41.0,34.0,20.0,94,80,49,29.90,29.70,6,1,10,0.00